MSC Bremen — A8LK7 — position and weather

sailwx.info

Track history (hours):
 
Tides and Currents Weather Stations Pressure Air Temp Water Temp Dewpoint Dewpoint Depression Visibility Wind Speed Wind Dir Waves Ship Positions

MSC Bremen

Last reported at 2014-Jul-31 05:24 UTC. Time now 2014-Jul-31 13:31 UTC.
Position N 27°03' W 079°19'.

Length 294 m; ; draft 13.7 m.

Type: Ship (hazmat cat B). MMSI: 636091270.

Date/timePositionNaut miles runAvg speedWind from/ knotsBaromVisibWave heightAir tempDewpointWater temp
2014-Jul-31 05:24N 27°03' W 079°19'1820.5
2014-Jul-31 04:31N 26°46' W 079°10'2318.8
2014-Jul-31 03:19N 26°30' W 078°52'6 2.7
2014-Jul-31 01:10N 26°32' W 078°46'9 0.5
2014-Jul-30 08:24N 26°24' W 078°51'1 1.0
2014-Jul-30 07:28N 26°25' W 078°52'2 0.8
2014-Jul-30 04:30N 26°27' W 078°53'1 1.3
2014-Jul-30 03:28N 26°28' W 078°55'0 0.3
2014-Jul-30 02:31N 26°28' W 078°55'3 0.7
2014-Jul-29 21:33N 26°25' W 078°54'2 0.9
2014-Jul-29 19:23N 26°25' W 078°56'10 9.8
2014-Jul-29 18:23N 26°22' W 078°46'1416.2
2014-Jul-29 17:33N 26°18' W 078°32'1 0.3
2014-Jul-29 13:33N 26°18' W 078°30'1 1.0
2014-Jul-29 12:30N 26°18' W 078°31'1 1.0
2014-Jul-29 11:33N 26°18' W 078°32'1 1.1
2014-Jul-29 10:32N 26°18' W 078°33'1 1.1
2014-Jul-29 09:20N 26°18' W 078°35'1 1.1
2014-Jul-29 08:22N 26°18' W 078°36'8 1.6
2014-Jul-29 03:27N 26°11' W 078°31'1516.4
2014-Jul-29 02:33N 26°05' W 078°16'1514.8
2014-Jul-29 01:32N 26°01' W 077°60'1715.2
2014-Jul-29 00:25N 25°55' W 077°42'  
2014-Jul-23 20:00N 13°54' W 062°54'93419.5 100 / 261015.0 5.4 2.027.027.0
2014-Jul-21 20:00N 05°12' W 049°48'   190 / 101014.0 5.4 1.033.029.0
Track history (hours):
 
Tides and Currents Weather Stations Pressure Air Temp Water Temp Dewpoint Dewpoint Depression Visibility Wind Speed Wind Dir Waves Ship Positions

MSC Bremen

Last reported at 2014-Jul-31 05:24 UTC. Time now 2014-Jul-31 13:31 UTC.
Position N 27°03' W 079°19'.

Length 294 m; ; draft 13.7 m.

Type: Ship (hazmat cat B). MMSI: 636091270.

Date/timePositionNaut miles runAvg speedWind from/ knotsBaromVisibWave heightAir tempDewpointWater temp
2014-Jul-31 05:24N 27°03' W 079°19'1820.5
2014-Jul-31 04:31N 26°46' W 079°10'2318.8
2014-Jul-31 03:19N 26°30' W 078°52'6 2.7
2014-Jul-31 01:10N 26°32' W 078°46'9 0.5
2014-Jul-30 08:24N 26°24' W 078°51'1 1.0
2014-Jul-30 07:28N 26°25' W 078°52'2 0.8
2014-Jul-30 04:30N 26°27' W 078°53'1 1.3
2014-Jul-30 03:28N 26°28' W 078°55'0 0.3
2014-Jul-30 02:31N 26°28' W 078°55'3 0.7
2014-Jul-29 21:33N 26°25' W 078°54'2 0.9
2014-Jul-29 19:23N 26°25' W 078°56'10 9.8
2014-Jul-29 18:23N 26°22' W 078°46'1416.2
2014-Jul-29 17:33N 26°18' W 078°32'1 0.3
2014-Jul-29 13:33N 26°18' W 078°30'1 1.0
2014-Jul-29 12:30N 26°18' W 078°31'1 1.0
2014-Jul-29 11:33N 26°18' W 078°32'1 1.1
2014-Jul-29 10:32N 26°18' W 078°33'1 1.1
2014-Jul-29 09:20N 26°18' W 078°35'1 1.1
2014-Jul-29 08:22N 26°18' W 078°36'8 1.6
2014-Jul-29 03:27N 26°11' W 078°31'1516.4
2014-Jul-29 02:33N 26°05' W 078°16'1514.8
2014-Jul-29 01:32N 26°01' W 077°60'1715.2
2014-Jul-29 00:25N 25°55' W 077°42'  
2014-Jul-23 20:00N 13°54' W 062°54'93419.5 100 / 261015.0 5.4 2.027.027.0
2014-Jul-21 20:00N 05°12' W 049°48'   190 / 101014.0 5.4 1.033.029.0

Dump ship's entire track history